createdAt,value
2023-12-21T00:00:20.032Z,5.53
2023-12-21T00:05:41.934Z,5.52
2023-12-21T00:11:03.911Z,5.69
2023-12-21T00:16:25.863Z,5.60
2023-12-21T00:21:47.824Z,5.70
2023-12-21T00:27:09.761Z,5.50
2023-12-21T00:32:31.645Z,5.55
2023-12-21T00:37:53.509Z,5.62
2023-12-21T00:43:15.539Z,5.58
2023-12-21T00:48:37.571Z,5.55
2023-12-21T00:53:59.623Z,5.58
2023-12-21T00:59:21.472Z,5.49
2023-12-21T01:04:43.418Z,5.65
2023-12-21T01:10:06.474Z,5.59
2023-12-21T01:15:28.341Z,5.71
2023-12-21T01:20:50.183Z,5.61
2023-12-21T01:26:12.135Z,5.62
2023-12-21T01:31:34.012Z,5.68
2023-12-21T01:36:55.944Z,5.65
2023-12-21T01:42:17.983Z,5.63
2023-12-21T01:47:40.189Z,5.73
2023-12-21T01:53:03.414Z,5.79
2023-12-21T01:58:25.696Z,5.79
2023-12-21T02:03:47.625Z,5.83
2023-12-21T02:09:10.032Z,5.88
2023-12-21T02:14:31.827Z,5.88
2023-12-21T02:19:54.738Z,5.93
2023-12-21T02:25:17.017Z,5.96
2023-12-21T02:30:38.847Z,6.04
2023-12-21T02:36:00.737Z,6.09
2023-12-21T02:41:22.509Z,6.14
2023-12-21T02:46:44.342Z,6.15
2023-12-21T02:52:06.595Z,6.20
2023-12-21T02:57:28.470Z,6.11
2023-12-21T03:02:50.240Z,6.22
2023-12-21T03:08:12.094Z,6.27
2023-12-21T03:13:34.056Z,6.24
2023-12-21T03:18:56.010Z,6.25
2023-12-21T03:24:17.932Z,6.27
2023-12-21T03:29:39.705Z,6.27
2023-12-21T03:35:01.590Z,6.30
2023-12-21T03:40:23.596Z,6.33
2023-12-21T03:45:45.468Z,6.30
2023-12-21T03:51:07.392Z,6.29
2023-12-21T03:56:29.282Z,6.37
2023-12-21T04:01:52.616Z,6.31
2023-12-21T04:07:14.493Z,6.41
2023-12-21T04:12:38.438Z,6.35
2023-12-21T04:18:00.296Z,6.29
2023-12-21T04:23:22.415Z,6.18
2023-12-21T04:28:44.288Z,6.25
2023-12-21T04:34:06.732Z,6.22
2023-12-21T04:39:28.648Z,6.25
2023-12-21T04:44:50.504Z,6.18
2023-12-21T04:50:12.327Z,6.12
2023-12-21T04:55:34.856Z,6.15
2023-12-21T05:00:56.825Z,6.26
2023-12-21T05:06:18.668Z,6.23
2023-12-21T05:11:41.080Z,6.28
2023-12-21T05:17:02.922Z,6.32
2023-12-21T05:22:24.755Z,6.37
2023-12-21T05:27:46.707Z,6.28
2023-12-21T05:33:08.743Z,6.42
2023-12-21T05:38:30.883Z,6.37
2023-12-21T05:43:52.771Z,6.38
2023-12-21T05:49:14.756Z,6.47
2023-12-21T05:54:36.728Z,6.53
2023-12-21T05:59:58.782Z,6.50
2023-12-21T06:05:20.647Z,6.50
2023-12-21T06:10:42.705Z,6.49
2023-12-21T06:16:05.124Z,6.48
2023-12-21T06:21:27.172Z,6.42
2023-12-21T06:26:48.913Z,6.45
2023-12-21T06:32:11.687Z,6.52
2023-12-21T06:37:33.666Z,6.47
2023-12-21T06:42:55.696Z,6.47
2023-12-21T06:48:17.668Z,6.51
2023-12-21T06:53:39.968Z,6.58
2023-12-21T06:59:02.010Z,6.67
2023-12-21T07:04:23.858Z,6.76
2023-12-21T07:09:45.708Z,6.82
2023-12-21T07:15:07.958Z,6.81
2023-12-21T07:20:31.653Z,6.86
2023-12-21T07:25:53.398Z,6.83
2023-12-21T07:31:17.218Z,6.90
2023-12-21T07:36:39.177Z,6.92
2023-12-21T07:42:01.942Z,6.90
2023-12-21T07:47:23.915Z,6.94
2023-12-21T07:52:46.137Z,6.90
2023-12-21T07:58:08.159Z,7.02
2023-12-21T08:03:30.272Z,6.98
2023-12-21T08:08:58.059Z,7.09
2023-12-21T08:14:21.429Z,7.10
2023-12-21T08:19:43.379Z,7.15
2023-12-21T08:25:05.587Z,7.13
2023-12-21T08:30:27.469Z,7.11
2023-12-21T08:35:49.304Z,7.22
2023-12-21T08:41:11.232Z,7.24
2023-12-21T08:46:33.140Z,7.15
2023-12-21T08:51:55.152Z,7.22
2023-12-21T08:57:22.683Z,7.27
2023-12-21T09:02:44.692Z,7.24
2023-12-21T09:08:07.475Z,7.28
2023-12-21T09:13:29.328Z,7.33
2023-12-21T09:18:53.383Z,7.40
2023-12-21T09:24:15.362Z,7.40
2023-12-21T09:29:38.468Z,7.50
2023-12-21T09:35:00.344Z,7.52
2023-12-21T09:40:25.890Z,7.60
2023-12-21T09:45:49.652Z,7.68
2023-12-21T09:51:16.238Z,7.67
2023-12-21T09:56:38.272Z,7.79
2023-12-21T10:02:00.301Z,7.89
2023-12-21T10:07:24.119Z,7.82
2023-12-21T10:12:46.360Z,7.98
2023-12-21T10:18:08.422Z,7.98
2023-12-21T10:23:30.459Z,8.01
2023-12-21T10:28:55.873Z,8.07
2023-12-21T10:34:19.029Z,8.06
2023-12-21T10:39:41.710Z,8.09
2023-12-21T10:45:13.171Z,8.15
2023-12-21T10:50:39.736Z,8.09
2023-12-21T10:56:02.646Z,8.17
2023-12-21T11:01:25.634Z,8.18
2023-12-21T11:06:48.534Z,8.30
2023-12-21T11:12:10.420Z,8.18
2023-12-21T11:17:34.988Z,8.24
2023-12-21T11:22:57.122Z,8.17
2023-12-21T11:28:29.653Z,8.29
2023-12-21T11:33:51.672Z,8.31
2023-12-21T11:39:16.875Z,8.29
2023-12-21T11:44:39.394Z,8.43
2023-12-21T11:50:08.456Z,8.47
2023-12-21T11:55:30.676Z,8.44
2023-12-21T12:00:55.062Z,8.48
2023-12-21T12:06:17.807Z,8.49
2023-12-21T12:11:42.932Z,8.46
2023-12-21T12:17:07.540Z,8.54
2023-12-21T12:22:29.549Z,8.63
2023-12-21T12:27:51.636Z,8.65
2023-12-21T12:33:14.229Z,8.75
2023-12-21T12:38:36.617Z,8.67
2023-12-21T12:43:59.550Z,8.80
2023-12-21T12:49:23.571Z,8.78
2023-12-21T12:54:49.228Z,8.85
2023-12-21T13:00:13.997Z,8.92
2023-12-21T13:05:36.057Z,8.79
2023-12-21T13:10:58.134Z,8.90
2023-12-21T13:16:20.385Z,8.84
2023-12-21T13:21:45.065Z,8.86
2023-12-21T13:27:07.784Z,9.02
2023-12-21T13:32:30.544Z,8.84
2023-12-21T13:37:52.725Z,8.59
2023-12-21T13:43:14.790Z,8.53
2023-12-21T13:48:37.140Z,8.44
2023-12-21T13:53:59.303Z,8.53
2023-12-21T13:59:21.150Z,8.48
2023-12-21T14:04:43.207Z,8.62
2023-12-21T14:10:05.791Z,8.61
2023-12-21T14:15:28.669Z,8.65
2023-12-21T14:20:52.857Z,8.76
2023-12-21T14:26:15.014Z,8.63
2023-12-21T14:31:36.906Z,8.59
2023-12-21T14:36:58.814Z,8.64
2023-12-21T14:42:20.640Z,8.65
2023-12-21T14:47:42.760Z,8.62
2023-12-21T14:53:04.665Z,8.54
2023-12-21T14:58:26.622Z,8.48
2023-12-21T15:03:48.592Z,8.60
2023-12-21T15:09:10.764Z,8.49
2023-12-21T15:14:32.710Z,8.54
2023-12-21T15:19:54.584Z,8.54
2023-12-21T15:25:16.462Z,8.62
2023-12-21T15:30:38.320Z,8.67
2023-12-21T15:36:00.399Z,8.68
2023-12-21T15:41:23.412Z,8.72
2023-12-21T15:46:45.356Z,8.66
2023-12-21T15:52:08.685Z,8.69
2023-12-21T15:57:31.163Z,8.65
2023-12-21T16:02:54.891Z,8.67
2023-12-21T16:08:16.809Z,8.67
2023-12-21T16:13:39.085Z,8.57
2023-12-21T16:19:01.191Z,8.68
2023-12-21T16:24:26.518Z,8.57
2023-12-21T16:29:48.430Z,8.65
2023-12-21T16:35:11.643Z,8.62
2023-12-21T16:40:33.669Z,8.60
2023-12-21T16:45:55.599Z,8.56
2023-12-21T16:51:17.541Z,8.46
2023-12-21T16:56:42.204Z,8.39
2023-12-21T17:02:04.321Z,8.38
2023-12-21T17:07:26.341Z,8.51
2023-12-21T17:12:48.353Z,8.73
2023-12-21T17:18:11.236Z,8.82
2023-12-21T17:23:33.382Z,9.13
2023-12-21T17:28:55.287Z,9.28
2023-12-21T17:34:20.229Z,9.37
2023-12-21T17:39:42.508Z,9.39
2023-12-21T17:45:09.918Z,9.44
2023-12-21T17:50:32.564Z,9.44
2023-12-21T17:55:54.498Z,9.48
2023-12-21T18:01:16.579Z,9.43
2023-12-21T18:06:38.465Z,9.16
2023-12-21T18:12:00.396Z,9.13
2023-12-21T18:17:22.257Z,9.21
2023-12-21T18:22:44.219Z,9.24
2023-12-21T18:28:06.200Z,9.29
2023-12-21T18:33:28.055Z,9.28
2023-12-21T18:38:50.145Z,9.30
2023-12-21T18:44:12.043Z,9.45
2023-12-21T18:49:34.159Z,9.54
2023-12-21T18:54:56.178Z,9.78
2023-12-21T19:00:20.193Z,9.71
2023-12-21T19:05:46.519Z,9.59
2023-12-21T19:11:19.902Z,9.45
2023-12-21T19:16:44.553Z,9.21
2023-12-21T19:22:06.503Z,9.13
2023-12-21T19:27:28.357Z,9.18
2023-12-21T19:32:50.312Z,9.10
2023-12-21T19:38:12.318Z,9.27
2023-12-21T19:43:34.543Z,9.41
2023-12-21T19:48:56.605Z,9.38
2023-12-21T19:54:18.568Z,9.48
2023-12-21T19:59:40.492Z,9.34
2023-12-21T20:05:02.532Z,9.35
2023-12-21T20:10:24.688Z,9.26
2023-12-21T20:15:46.596Z,9.20
2023-12-21T20:21:08.454Z,9.23
2023-12-21T20:26:30.337Z,9.21
2023-12-21T20:31:52.245Z,9.34
2023-12-21T20:37:14.236Z,9.41
2023-12-21T20:42:36.073Z,9.41
2023-12-21T20:47:58.498Z,9.43
2023-12-21T20:53:22.223Z,9.57
2023-12-21T20:58:44.164Z,9.64
2023-12-21T21:04:05.938Z,9.73
2023-12-21T21:09:29.411Z,9.66
2023-12-21T21:14:51.199Z,9.62
2023-12-21T21:20:13.157Z,9.66
2023-12-21T21:25:35.045Z,9.53
2023-12-21T21:31:00.502Z,9.47
2023-12-21T21:36:24.177Z,9.48
2023-12-21T21:41:49.381Z,9.31
2023-12-21T21:47:11.232Z,9.27
2023-12-21T21:52:33.197Z,9.21
2023-12-21T21:57:55.188Z,9.12
2023-12-21T22:03:17.156Z,9.11
2023-12-21T22:08:38.993Z,9.06
2023-12-21T22:14:02.272Z,9.12
2023-12-21T22:19:24.339Z,9.07
2023-12-21T22:24:46.247Z,8.99
2023-12-21T22:30:08.688Z,8.94
2023-12-21T22:35:31.641Z,8.77
2023-12-21T22:40:53.702Z,8.61
2023-12-21T22:46:15.804Z,8.28
2023-12-21T22:51:37.712Z,8.05
2023-12-21T22:56:59.530Z,7.99
2023-12-21T23:02:21.473Z,7.73
2023-12-21T23:07:44.215Z,7.63
2023-12-21T23:13:06.224Z,7.51
2023-12-21T23:18:28.177Z,7.48
2023-12-21T23:23:50.091Z,7.48
2023-12-21T23:29:11.976Z,7.31
2023-12-21T23:34:33.782Z,7.31
2023-12-21T23:40:00.145Z,7.29
2023-12-21T23:45:22.414Z,7.14
2023-12-21T23:50:44.221Z,7.02
2023-12-21T23:56:06.055Z,6.89
